createdAt,value
2017-07-17T00:01:11.633Z,90.00
2017-07-17T00:03:39.386Z,90.00
2017-07-17T00:06:07.196Z,89.30
2017-07-17T00:08:34.957Z,89.30
2017-07-17T00:11:02.703Z,89.60
2017-07-17T00:13:30.487Z,90.00
2017-07-17T00:15:58.242Z,90.10
2017-07-17T00:18:26.046Z,90.00
2017-07-17T00:20:53.794Z,89.70
2017-07-17T00:23:21.551Z,89.50
2017-07-17T00:25:50.098Z,88.80
2017-07-17T00:28:17.848Z,88.80
2017-07-17T00:30:45.655Z,88.50
2017-07-17T00:33:14.163Z,88.00
2017-07-17T00:35:41.912Z,88.00
2017-07-17T00:38:09.703Z,87.90
2017-07-17T00:40:37.453Z,87.80
2017-07-17T00:43:05.267Z,88.00
2017-07-17T00:45:33.013Z,88.20
2017-07-17T00:48:00.772Z,88.40
2017-07-17T00:50:28.544Z,87.40
2017-07-17T00:52:56.301Z,88.20
2017-07-17T00:55:24.107Z,88.00
2017-07-17T00:57:51.855Z,87.60
2017-07-17T01:00:20.377Z,88.10
2017-07-17T01:02:48.159Z,88.10
2017-07-17T01:05:15.915Z,87.40
2017-07-17T01:07:43.720Z,87.40
2017-07-17T01:10:11.471Z,86.90
2017-07-17T01:12:39.986Z,86.80
2017-07-17T01:15:07.789Z,86.80
2017-07-17T01:17:35.536Z,86.70
2017-07-17T01:20:03.343Z,86.40
2017-07-17T01:22:31.859Z,86.20
2017-07-17T01:24:59.615Z,86.10
2017-07-17T01:27:27.395Z,85.60
2017-07-17T01:29:55.152Z,86.50
2017-07-17T01:32:22.971Z,84.90
2017-07-17T01:34:50.720Z,85.40
2017-07-17T01:37:18.463Z,84.90
2017-07-17T01:39:46.246Z,85.00
2017-07-17T01:42:14.764Z,85.80
2017-07-17T01:44:42.570Z,85.20
2017-07-17T01:47:10.318Z,85.30
2017-07-17T01:49:38.064Z,84.80
2017-07-17T01:52:05.843Z,84.80
2017-07-17T01:54:33.587Z,84.30
2017-07-17T01:57:01.405Z,83.90
2017-07-17T01:59:29.171Z,84.50
2017-07-17T02:01:56.941Z,84.50
2017-07-17T02:04:25.159Z,83.60
2017-07-17T02:06:52.921Z,84.10
2017-07-17T02:09:20.730Z,83.70
2017-07-17T02:11:48.475Z,83.10
2017-07-17T02:14:16.223Z,84.20
2017-07-17T02:16:44.003Z,83.50
2017-07-17T02:19:12.527Z,84.20
2017-07-17T02:21:40.326Z,84.20
2017-07-17T02:24:08.853Z,84.50
2017-07-17T02:26:36.627Z,84.40
2017-07-17T02:29:04.410Z,84.10
2017-07-17T02:31:33.778Z,82.80
2017-07-17T02:34:01.583Z,82.80
2017-07-17T02:36:29.333Z,81.40
2017-07-17T02:38:57.073Z,82.20
2017-07-17T02:41:24.844Z,82.20
2017-07-17T02:43:52.604Z,81.40
2017-07-17T02:46:20.414Z,82.30
2017-07-17T02:48:48.163Z,81.50
2017-07-17T02:51:16.690Z,80.90
2017-07-17T02:53:44.466Z,81.00
2017-07-17T02:56:12.216Z,80.40
2017-07-17T02:58:40.023Z,79.60
2017-07-17T03:01:07.775Z,80.50
2017-07-17T03:03:35.520Z,80.70
2017-07-17T03:06:03.296Z,80.80
2017-07-17T03:08:31.046Z,80.20
2017-07-17T03:10:58.858Z,80.00
2017-07-17T03:13:26.608Z,79.50
2017-07-17T03:15:55.118Z,80.30
2017-07-17T03:18:22.900Z,80.20
2017-07-17T03:20:50.651Z,80.30
2017-07-17T03:23:18.462Z,81.30
2017-07-17T03:25:46.976Z,81.20
2017-07-17T03:28:14.723Z,81.10
2017-07-17T03:30:42.504Z,80.70
2017-07-17T03:33:10.255Z,81.40
2017-07-17T03:35:38.060Z,81.40
2017-07-17T03:38:05.807Z,81.00
2017-07-17T03:40:33.554Z,80.00
2017-07-17T03:43:01.556Z,80.80
2017-07-17T03:45:29.302Z,81.20
2017-07-17T03:47:57.055Z,81.30
2017-07-17T03:50:24.867Z,81.60
2017-07-17T03:52:53.393Z,81.70
2017-07-17T03:55:21.155Z,81.70
2017-07-17T03:57:49.012Z,82.00
2017-07-17T04:00:16.764Z,81.30
2017-07-17T04:02:44.527Z,82.00
2017-07-17T04:05:12.306Z,81.80
2017-07-17T04:07:40.059Z,80.80
2017-07-17T04:10:07.818Z,80.80
2017-07-17T04:12:35.601Z,81.00
2017-07-17T04:15:03.352Z,81.60
2017-07-17T04:17:31.101Z,81.40
2017-07-17T04:19:58.903Z,81.90
2017-07-17T04:22:26.646Z,81.40
2017-07-17T04:24:54.394Z,82.10
2017-07-17T04:27:22.181Z,82.50
2017-07-17T04:29:49.927Z,82.50
2017-07-17T04:32:17.684Z,82.60
2017-07-17T04:34:45.479Z,81.90
2017-07-17T04:37:13.229Z,82.10
2017-07-17T04:39:40.979Z,81.10
2017-07-17T04:42:08.807Z,80.70
2017-07-17T04:44:36.570Z,79.80
2017-07-17T04:47:04.319Z,79.40
2017-07-17T04:49:32.120Z,79.20
2017-07-17T04:51:59.871Z,78.80
2017-07-17T04:54:27.619Z,79.00
2017-07-17T04:56:55.436Z,79.80
2017-07-17T04:59:23.906Z,79.60
2017-07-17T05:01:51.660Z,80.10
2017-07-17T05:04:19.452Z,79.50
2017-07-17T05:06:47.966Z,79.50
2017-07-17T05:09:15.720Z,79.50
2017-07-17T05:11:43.498Z,80.10
2017-07-17T05:14:11.250Z,79.80
2017-07-17T05:16:38.992Z,79.90
2017-07-17T05:19:06.805Z,78.80
2017-07-17T05:21:34.571Z,79.00
2017-07-17T05:24:02.355Z,78.90
2017-07-17T05:26:30.136Z,78.70
2017-07-17T05:28:57.892Z,79.80
2017-07-17T05:31:25.667Z,80.40
2017-07-17T05:33:53.429Z,80.00
2017-07-17T05:36:21.244Z,79.90
2017-07-17T05:38:49.032Z,79.30
2017-07-17T05:41:17.567Z,79.50
2017-07-17T05:43:45.359Z,80.10
2017-07-17T05:46:13.110Z,80.20
2017-07-17T05:48:40.967Z,80.40
2017-07-17T05:51:08.714Z,80.50
2017-07-17T05:53:36.475Z,80.50
2017-07-17T05:56:04.259Z,78.20
2017-07-17T05:58:32.009Z,74.80
2017-07-17T06:00:59.833Z,72.40
2017-07-17T06:03:27.629Z,70.90
2017-07-17T06:05:55.399Z,61.20
2017-07-17T06:08:23.179Z,51.70
2017-07-17T06:10:50.934Z,42.30
2017-07-17T06:13:18.756Z,33.50
2017-07-17T06:15:46.525Z,31.10
2017-07-17T06:18:14.294Z,33.50
2017-07-17T06:20:42.087Z,34.50
2017-07-17T06:23:09.856Z,35.90
2017-07-17T06:25:38.442Z,33.50
2017-07-17T06:28:06.965Z,31.60
2017-07-17T06:30:34.725Z,31.50
2017-07-17T06:33:02.517Z,28.60
2017-07-17T06:35:30.270Z,27.10
2017-07-17T06:37:58.074Z,26.00
2017-07-17T06:40:25.839Z,27.80
2017-07-17T06:42:53.595Z,30.10
2017-07-17T06:45:21.383Z,32.10
2017-07-17T06:47:49.152Z,32.70
2017-07-17T06:50:16.974Z,31.40
2017-07-17T06:52:45.492Z,35.10
2017-07-17T06:55:13.245Z,35.00
2017-07-17T06:57:41.026Z,37.10
2017-07-17T07:00:08.788Z,39.70
2017-07-17T07:02:36.615Z,41.90
2017-07-17T07:05:04.376Z,42.00
2017-07-17T07:07:32.135Z,44.30
2017-07-17T07:10:00.687Z,47.30
2017-07-17T07:12:28.455Z,47.20
2017-07-17T07:14:57.045Z,48.70
2017-07-17T07:17:25.582Z,47.30
2017-07-17T07:19:53.367Z,47.30
2017-07-17T07:22:21.156Z,44.80
2017-07-17T07:24:49.700Z,40.90
2017-07-17T07:27:17.535Z,40.90
2017-07-17T07:29:45.303Z,41.20
2017-07-17T07:32:13.068Z,43.30
2017-07-17T07:34:40.862Z,44.70
2017-07-17T07:37:08.622Z,44.40
2017-07-17T07:39:36.576Z,44.60
2017-07-17T07:42:04.350Z,44.50
2017-07-17T07:44:32.131Z,46.10
2017-07-17T07:47:00.676Z,48.00
2017-07-17T07:49:28.437Z,47.80
2017-07-17T07:51:56.267Z,46.10
2017-07-17T07:54:24.027Z,45.90
2017-07-17T07:56:51.785Z,46.50
2017-07-17T07:59:19.568Z,48.00
2017-07-17T08:01:47.322Z,50.60
2017-07-17T08:04:15.147Z,52.80
2017-07-17T08:06:43.664Z,67.70
2017-07-17T08:09:11.432Z,67.60
2017-07-17T08:11:39.216Z,84.30
2017-07-17T08:14:06.983Z,86.90
2017-07-17T08:16:34.795Z,91.00
2017-07-17T08:19:02.558Z,95.50
2017-07-17T08:21:30.322Z,95.50
2017-07-17T08:23:58.101Z,96.60
2017-07-17T08:26:25.916Z,96.80
2017-07-17T08:28:54.511Z,96.00
2017-07-17T08:31:22.335Z,96.00
2017-07-17T08:33:50.094Z,97.10
2017-07-17T08:36:17.878Z,93.40
2017-07-17T08:38:45.652Z,93.20
2017-07-17T08:41:14.413Z,93.30
2017-07-17T08:43:42.173Z,93.30
2017-07-17T08:46:09.924Z,95.70
2017-07-17T08:48:37.703Z,97.30
2017-07-17T08:51:05.451Z,95.70
2017-07-17T08:53:33.271Z,95.30
2017-07-17T08:56:01.026Z,94.50
2017-07-17T08:58:28.787Z,92.80
2017-07-17T09:00:56.572Z,91.70
2017-07-17T09:03:24.337Z,90.90
2017-07-17T09:05:52.147Z,88.60
2017-07-17T09:08:21.990Z,71.60
2017-07-17T09:10:49.767Z,71.60
2017-07-17T09:13:18.058Z,66.60
2017-07-17T09:15:46.222Z,62.80
2017-07-17T09:18:14.859Z,62.90
2017-07-17T09:20:42.615Z,62.90
2017-07-17T09:23:11.137Z,71.80
2017-07-17T09:25:38.923Z,71.80
2017-07-17T09:28:06.671Z,76.40
2017-07-17T09:30:34.482Z,80.70
2017-07-17T09:33:02.251Z,79.00
2017-07-17T09:35:30.007Z,77.60
2017-07-17T09:37:57.788Z,76.10
2017-07-17T09:40:25.538Z,71.90
2017-07-17T09:42:53.342Z,72.30
2017-07-17T09:45:21.093Z,73.40
2017-07-17T09:47:52.924Z,76.50
2017-07-17T09:50:20.711Z,80.30
2017-07-17T09:52:48.462Z,82.70
2017-07-17T09:55:16.262Z,83.30
2017-07-17T09:57:44.011Z,84.00
2017-07-17T10:00:11.761Z,86.30
2017-07-17T10:02:39.544Z,87.50
2017-07-17T10:05:07.291Z,86.70
2017-07-17T10:07:35.114Z,88.70
2017-07-17T10:10:02.870Z,87.90
2017-07-17T10:12:30.632Z,88.10
2017-07-17T10:14:58.414Z,89.40
2017-07-17T10:17:26.163Z,90.40
2017-07-17T10:19:53.971Z,90.30
2017-07-17T10:22:21.724Z,90.80
2017-07-17T10:24:49.473Z,90.60
2017-07-17T10:27:17.254Z,90.60
2017-07-17T10:29:45.008Z,90.20
2017-07-17T10:32:12.816Z,90.70
2017-07-17T10:34:40.558Z,91.00
2017-07-17T10:37:08.307Z,90.30
2017-07-17T10:39:36.090Z,88.80
2017-07-17T10:42:04.612Z,94.10
2017-07-17T10:44:32.421Z,94.20
2017-07-17T10:47:00.178Z,91.60
2017-07-17T10:49:28.039Z,93.60
2017-07-17T10:51:55.826Z,94.00
2017-07-17T10:54:23.587Z,92.10
2017-07-17T10:56:51.412Z,88.90
2017-07-17T10:59:19.177Z,83.10
2017-07-17T11:01:46.923Z,82.40
2017-07-17T11:04:14.716Z,85.00
2017-07-17T11:06:42.467Z,88.70
2017-07-17T11:09:10.271Z,87.50
2017-07-17T11:11:38.031Z,81.90
2017-07-17T11:14:05.779Z,80.90
2017-07-17T11:16:34.331Z,84.90
2017-07-17T11:19:02.115Z,84.80
2017-07-17T11:21:29.927Z,81.10
2017-07-17T11:23:57.678Z,80.60
2017-07-17T11:26:25.462Z,77.60
2017-07-17T11:28:53.784Z,69.40
2017-07-17T11:31:21.531Z,62.70
2017-07-17T11:33:50.099Z,63.40
2017-07-17T11:36:17.847Z,63.50
2017-07-17T11:38:45.594Z,65.40
2017-07-17T11:41:13.380Z,68.90
2017-07-17T11:43:41.130Z,68.30
2017-07-17T11:56:22.209Z,69.10
2017-07-17T11:58:49.968Z,62.60
2017-07-17T12:01:17.727Z,63.20
2017-07-17T12:03:45.512Z,64.20
2017-07-17T12:06:13.268Z,65.10
2017-07-17T12:08:41.087Z,62.40
2017-07-17T12:11:08.848Z,64.30
2017-07-17T12:13:36.605Z,66.00
2017-07-17T12:16:04.461Z,65.00
2017-07-17T12:18:32.451Z,67.40
2017-07-17T12:21:00.287Z,66.90
2017-07-17T12:23:28.040Z,65.60
2017-07-17T12:25:55.795Z,61.20
2017-07-17T12:28:23.575Z,61.30
2017-07-17T12:30:51.329Z,59.60
2017-07-17T12:33:19.143Z,60.50
2017-07-17T12:35:46.902Z,60.70
2017-07-17T12:38:14.661Z,59.20
2017-07-17T12:40:42.577Z,58.00
2017-07-17T12:43:10.446Z,56.30
2017-07-17T12:45:38.255Z,54.90
2017-07-17T12:48:06.017Z,54.10
2017-07-17T12:50:33.789Z,53.50
2017-07-17T12:53:01.594Z,54.30
2017-07-17T12:55:29.343Z,52.10
2017-07-17T12:57:57.150Z,50.60
2017-07-17T13:00:25.676Z,50.20
2017-07-17T13:02:53.430Z,50.10
2017-07-17T13:05:21.208Z,50.60
2017-07-17T13:07:48.963Z,50.60
2017-07-17T13:10:16.782Z,50.40
2017-07-17T13:12:44.542Z,51.40
2017-07-17T13:15:13.079Z,50.80
2017-07-17T13:17:40.860Z,50.70
2017-07-17T13:20:08.617Z,49.30
2017-07-17T13:22:36.439Z,48.50
2017-07-17T13:25:04.188Z,49.20
2017-07-17T13:27:31.955Z,48.50
2017-07-17T13:29:59.740Z,47.40
2017-07-17T13:32:27.499Z,45.00
2017-07-17T13:34:55.311Z,45.90
2017-07-17T13:37:23.841Z,42.40
2017-07-17T13:39:51.599Z,42.40
2017-07-17T13:42:19.388Z,42.00
2017-07-17T13:44:49.357Z,43.00
2017-07-17T13:47:18.505Z,43.20
2017-07-17T13:49:48.231Z,43.60
2017-07-17T13:52:16.881Z,43.60
2017-07-17T13:54:47.178Z,44.60
2017-07-17T13:57:15.414Z,45.20
2017-07-17T13:59:44.874Z,44.40
2017-07-17T14:02:15.099Z,44.00
2017-07-17T14:04:44.449Z,45.60
2017-07-17T14:07:15.004Z,45.60
2017-07-17T14:09:44.417Z,48.90
2017-07-17T14:12:12.388Z,47.80
2017-07-17T14:14:40.261Z,48.30
2017-07-17T14:17:11.182Z,48.00
2017-07-17T14:19:41.467Z,46.60
2017-07-17T14:22:11.077Z,48.40
2017-07-17T14:24:41.262Z,49.20
2017-07-17T14:27:10.376Z,50.40
2017-07-17T14:29:40.374Z,50.00
2017-07-17T14:32:11.342Z,50.40
2017-07-17T14:34:44.494Z,49.90
2017-07-17T14:37:12.382Z,50.30
2017-07-17T14:39:40.292Z,49.30
2017-07-17T14:42:08.769Z,48.30
2017-07-17T14:44:36.833Z,47.70
2017-07-17T14:47:05.435Z,47.80
2017-07-17T14:49:34.039Z,48.40
2017-07-17T14:52:01.816Z,48.30
2017-07-17T14:54:29.592Z,49.30
2017-07-17T14:56:57.387Z,50.20
2017-07-17T14:59:25.165Z,50.40
2017-07-17T15:01:53.757Z,49.40
2017-07-17T15:04:21.531Z,49.00
2017-07-17T15:06:49.314Z,48.60
2017-07-17T15:09:17.231Z,48.30
2017-07-17T15:11:49.271Z,50.80
2017-07-17T15:14:23.366Z,50.70
2017-07-17T15:16:51.169Z,51.60
2017-07-17T15:19:19.764Z,52.40
2017-07-17T15:21:48.693Z,52.50
2017-07-17T15:24:16.475Z,51.90
2017-07-17T15:26:44.316Z,51.00
2017-07-17T15:29:12.201Z,49.60
2017-07-17T15:31:40.178Z,47.90
2017-07-17T15:34:08.743Z,49.20
2017-07-17T15:36:36.501Z,49.10
2017-07-17T15:39:04.327Z,48.50
2017-07-17T15:41:32.140Z,47.90
2017-07-17T15:43:59.898Z,48.00
2017-07-17T15:46:27.683Z,47.40
2017-07-17T15:48:56.207Z,47.60
2017-07-17T15:51:24.025Z,47.60
2017-07-17T15:53:51.780Z,47.20
2017-07-17T15:56:19.536Z,47.90
2017-07-17T15:58:47.340Z,46.30
2017-07-17T16:01:15.100Z,47.40
2017-07-17T16:03:42.920Z,46.50
2017-07-17T16:06:10.689Z,45.90
2017-07-17T16:11:37.556Z,47.40
2017-07-17T16:14:05.347Z,47.60
2017-07-17T16:16:33.227Z,47.70
2017-07-17T16:19:01.005Z,48.70
2017-07-17T16:21:28.808Z,49.10
2017-07-17T16:23:57.399Z,48.90
2017-07-17T16:26:25.366Z,48.80
2017-07-17T16:28:53.192Z,48.80
2017-07-17T16:31:20.979Z,49.80
2017-07-17T16:33:49.521Z,49.40
2017-07-17T16:36:17.318Z,49.40
2017-07-17T16:38:45.871Z,52.30
2017-07-17T16:41:13.700Z,52.30
2017-07-17T16:43:41.577Z,52.90
2017-07-17T16:46:09.486Z,51.20
2017-07-17T16:48:37.307Z,48.40
2017-07-17T16:51:05.080Z,48.80
2017-07-17T16:53:32.929Z,47.40
2017-07-17T16:56:00.703Z,46.60
2017-07-17T16:58:28.475Z,45.50
2017-07-17T17:00:56.319Z,44.80
2017-07-17T17:03:24.094Z,44.80
2017-07-17T17:05:51.873Z,45.80
2017-07-17T17:08:19.695Z,45.70
2017-07-17T17:10:47.472Z,46.80
2017-07-17T17:13:15.239Z,46.60
2017-07-17T17:15:43.062Z,46.60
2017-07-17T17:18:10.826Z,46.10
2017-07-17T17:20:39.329Z,45.50
2017-07-17T17:23:07.134Z,45.60
2017-07-17T17:25:34.897Z,45.30
2017-07-17T17:28:03.441Z,46.60
2017-07-17T17:30:31.268Z,46.60
2017-07-17T17:32:59.039Z,46.90
2017-07-17T17:35:26.813Z,47.20
2017-07-17T17:37:54.692Z,47.40
2017-07-17T17:40:22.474Z,47.30
2017-07-17T17:42:50.256Z,47.20
2017-07-17T17:45:18.843Z,48.90
2017-07-17T17:47:47.377Z,49.00
2017-07-17T17:50:15.159Z,49.00
2017-07-17T17:52:42.956Z,50.00
2017-07-17T17:55:10.724Z,50.20
2017-07-17T17:57:38.500Z,50.70
2017-07-17T18:00:06.304Z,50.00
2017-07-17T18:02:34.849Z,52.30
2017-07-17T18:05:02.616Z,52.30
2017-07-17T18:07:30.415Z,54.00
2017-07-17T18:09:58.178Z,55.20
2017-07-17T18:12:25.955Z,56.60
2017-07-17T18:14:53.758Z,56.40
2017-07-17T18:17:21.531Z,57.10
2017-07-17T18:19:49.305Z,57.60
2017-07-17T18:22:17.100Z,56.90
2017-07-17T18:24:45.645Z,59.00
2017-07-17T18:27:13.444Z,58.90
2017-07-17T18:29:42.020Z,62.60
2017-07-17T18:32:10.567Z,64.50
2017-07-17T18:34:38.406Z,64.40
2017-07-17T18:37:06.266Z,65.40
2017-07-17T18:39:34.076Z,67.00
2017-07-17T18:42:02.019Z,69.00
2017-07-17T18:44:29.802Z,69.80
2017-07-17T18:46:58.421Z,71.80
2017-07-17T18:49:27.402Z,71.70
2017-07-17T18:51:55.180Z,72.10
2017-07-17T18:54:22.994Z,72.80
2017-07-17T18:56:51.553Z,74.20
2017-07-17T18:59:19.409Z,74.20
2017-07-17T19:01:47.201Z,75.10
2017-07-17T19:04:14.973Z,75.60
2017-07-17T19:06:42.782Z,76.70
2017-07-17T19:09:10.573Z,78.40
2017-07-17T19:11:38.425Z,79.80
2017-07-17T19:14:06.210Z,80.60
2017-07-17T19:16:34.048Z,82.00
2017-07-17T19:19:01.822Z,83.40
2017-07-17T19:21:29.625Z,84.00
2017-07-17T19:23:57.474Z,85.40
2017-07-17T19:26:26.029Z,88.30
2017-07-17T19:28:53.878Z,88.30
2017-07-17T19:31:21.648Z,89.60
2017-07-17T19:33:49.428Z,90.10
2017-07-17T19:36:17.555Z,90.50
2017-07-17T19:38:45.438Z,90.70
2017-07-17T19:41:13.291Z,90.80
2017-07-17T19:43:43.405Z,91.20
2017-07-17T19:46:11.222Z,91.80
2017-07-17T19:48:39.813Z,92.60
2017-07-17T19:51:08.378Z,92.60
2017-07-17T19:53:36.231Z,92.60
2017-07-17T19:56:04.057Z,92.40
2017-07-17T19:58:31.960Z,92.00
2017-07-17T20:01:00.580Z,91.50
2017-07-17T20:03:28.369Z,91.50
2017-07-17T20:05:56.216Z,91.20
2017-07-17T20:08:23.999Z,90.80
2017-07-17T20:10:51.794Z,90.30
2017-07-17T20:13:19.824Z,90.10
2017-07-17T20:15:47.612Z,90.20
2017-07-17T20:18:15.452Z,90.20
2017-07-17T20:20:43.232Z,90.60
2017-07-17T20:23:11.010Z,90.20
2017-07-17T20:25:38.827Z,89.00
2017-07-17T20:28:06.639Z,90.00
2017-07-17T20:30:34.516Z,89.60
2017-07-17T20:33:03.064Z,90.00
2017-07-17T20:35:30.837Z,90.00
2017-07-17T20:37:59.013Z,90.10
2017-07-17T20:40:26.952Z,90.50
2017-07-17T20:42:54.845Z,90.50
2017-07-17T20:45:22.691Z,90.80
2017-07-17T20:47:50.492Z,90.70
2017-07-17T20:50:18.467Z,90.90
2017-07-17T20:52:46.303Z,91.00
2017-07-17T20:55:15.001Z,91.00
2017-07-17T20:57:42.805Z,90.90
2017-07-17T21:00:10.723Z,90.70
2017-07-17T21:02:38.695Z,90.60
2017-07-17T21:05:06.522Z,90.80
2017-07-17T21:07:35.886Z,90.90
2017-07-17T21:10:04.223Z,90.80
2017-07-17T21:12:32.798Z,91.40
2017-07-17T21:15:06.392Z,91.70
2017-07-17T21:17:35.261Z,92.30
2017-07-17T21:20:03.114Z,92.30
2017-07-17T21:22:30.989Z,92.70
2017-07-17T21:24:58.770Z,93.20
2017-07-17T21:27:27.367Z,94.10
2017-07-17T21:29:55.908Z,94.30
2017-07-17T21:32:23.741Z,94.30
2017-07-17T21:34:51.518Z,95.00
2017-07-17T21:37:19.289Z,95.50
2017-07-17T21:39:47.090Z,95.70
2017-07-17T21:42:15.634Z,95.90
2017-07-17T21:44:43.478Z,95.60
2017-07-17T21:47:11.482Z,95.50
2017-07-17T21:49:40.933Z,95.60
2017-07-17T21:52:11.286Z,95.50
2017-07-17T21:54:40.560Z,95.80
2017-07-17T21:57:11.602Z,96.00
2017-07-17T21:59:43.567Z,96.00
2017-07-17T22:02:19.383Z,96.50
2017-07-17T22:04:53.944Z,97.10
2017-07-17T22:07:23.991Z,97.60
2017-07-17T22:10:00.417Z,97.60
2017-07-17T22:12:32.002Z,97.60
2017-07-17T22:15:00.969Z,97.80
2017-07-17T22:17:31.526Z,97.60
2017-07-17T22:20:00.231Z,97.70
2017-07-17T22:22:29.503Z,98.00
2017-07-17T22:24:58.126Z,98.30
2017-07-17T22:27:25.910Z,98.30
2017-07-17T22:29:53.714Z,98.40
2017-07-17T22:32:22.287Z,99.40
2017-07-17T22:34:50.069Z,99.20
2017-07-17T22:37:17.903Z,99.30
2017-07-17T22:39:45.686Z,99.50
2017-07-17T22:42:14.247Z,99.90
2017-07-17T22:44:42.062Z,99.90
2017-07-17T22:47:09.844Z,99.90
2017-07-17T22:49:37.676Z,99.90
2017-07-17T22:52:05.450Z,99.90
2017-07-17T22:54:33.227Z,99.90
2017-07-17T22:57:01.034Z,99.90
2017-07-17T22:59:28.811Z,99.90
2017-07-17T23:01:57.412Z,99.90
2017-07-17T23:04:25.194Z,99.90
2017-07-17T23:06:52.972Z,99.90
2017-07-17T23:09:20.808Z,99.90
2017-07-17T23:11:48.596Z,99.90
2017-07-17T23:14:16.819Z,99.90
2017-07-17T23:16:44.605Z,99.90
2017-07-17T23:19:12.398Z,99.90
2017-07-17T23:21:40.206Z,99.90
2017-07-17T23:24:08.745Z,99.90
2017-07-17T23:26:36.610Z,99.90
2017-07-17T23:29:04.401Z,99.90
2017-07-17T23:31:33.266Z,99.90
2017-07-17T23:34:01.069Z,99.90
2017-07-17T23:36:28.860Z,99.90
2017-07-17T23:38:56.689Z,99.90
2017-07-17T23:41:24.468Z,99.90
2017-07-17T23:43:52.241Z,99.90
2017-07-17T23:46:20.051Z,99.90
2017-07-17T23:48:47.843Z,99.90
2017-07-17T23:51:15.681Z,99.90
2017-07-17T23:53:44.236Z,99.90
2017-07-17T23:56:12.027Z,99.90
2017-07-17T23:58:39.849Z,99.90
